createdAt,value
2022-08-18T00:00:26.334Z,15.90
2022-08-18T00:04:36.052Z,15.90
2022-08-18T00:08:38.767Z,15.80
2022-08-18T00:12:43.269Z,15.80
2022-08-18T00:16:45.103Z,15.70
2022-08-18T00:20:46.853Z,15.70
2022-08-18T00:24:55.066Z,15.60
2022-08-18T00:28:56.810Z,15.60
2022-08-18T00:33:00.897Z,15.60
2022-08-18T00:37:02.607Z,15.60
2022-08-18T00:41:05.868Z,15.50
2022-08-18T00:45:08.444Z,15.50
2022-08-18T00:49:10.262Z,15.50
2022-08-18T00:53:33.516Z,15.50
2022-08-18T00:57:36.177Z,15.40
2022-08-18T01:01:39.905Z,15.40
2022-08-18T01:05:59.828Z,15.40
2022-08-18T01:10:05.575Z,15.30
2022-08-18T01:14:09.716Z,15.30
2022-08-18T01:18:32.817Z,15.30
2022-08-18T01:22:47.709Z,15.20
2022-08-18T01:26:52.193Z,15.20
2022-08-18T01:30:58.265Z,15.20
2022-08-18T01:35:00.284Z,15.20
2022-08-18T01:39:02.024Z,15.20
2022-08-18T01:43:05.020Z,15.30
2022-08-18T01:47:07.382Z,15.30
2022-08-18T01:51:10.563Z,15.40
2022-08-18T01:55:14.515Z,15.30
2022-08-18T01:59:16.586Z,15.30
2022-08-18T02:03:18.326Z,15.40
2022-08-18T02:07:20.099Z,15.30
2022-08-18T02:11:22.286Z,15.40
2022-08-18T02:15:24.043Z,15.40
2022-08-18T02:19:25.827Z,15.50
2022-08-18T02:23:27.568Z,15.50
2022-08-18T02:27:29.606Z,15.50
2022-08-18T02:31:32.126Z,15.60
2022-08-18T02:35:34.009Z,15.70
2022-08-18T02:39:37.893Z,15.70
2022-08-18T02:43:42.017Z,15.80
2022-08-18T02:47:44.814Z,15.90
2022-08-18T02:51:46.774Z,16.10
2022-08-18T02:55:49.009Z,16.20
2022-08-18T02:59:50.765Z,16.40
2022-08-18T03:03:53.873Z,16.60
2022-08-18T03:07:59.676Z,17.00
2022-08-18T03:12:02.506Z,17.10
2022-08-18T03:16:04.481Z,17.10
2022-08-18T03:20:06.936Z,17.10
2022-08-18T03:24:12.256Z,17.30
2022-08-18T03:28:15.717Z,17.30
2022-08-18T03:32:18.220Z,17.30
2022-08-18T03:36:23.612Z,17.20
2022-08-18T03:40:25.393Z,17.30
2022-08-18T03:44:32.268Z,17.30
2022-08-18T03:48:34.081Z,17.40
2022-08-18T03:52:38.306Z,17.40
2022-08-18T03:56:45.280Z,17.40
2022-08-18T04:00:47.293Z,17.40
2022-08-18T04:04:49.537Z,17.30
2022-08-18T04:08:55.080Z,17.40
2022-08-18T04:12:56.829Z,17.40
2022-08-18T04:16:59.675Z,17.50
2022-08-18T04:21:03.419Z,17.50
2022-08-18T04:25:09.222Z,17.50
2022-08-18T04:29:12.943Z,17.50
2022-08-18T04:33:14.688Z,17.50
2022-08-18T04:37:17.344Z,17.50
2022-08-18T04:41:19.564Z,17.50
2022-08-18T04:45:21.325Z,17.50
2022-08-18T04:49:26.265Z,17.50
2022-08-18T04:53:46.177Z,17.50
2022-08-18T04:57:47.964Z,17.50
2022-08-18T05:01:49.833Z,17.50
2022-08-18T05:05:51.618Z,17.50
2022-08-18T05:09:54.901Z,17.50
2022-08-18T05:13:57.982Z,17.50
2022-08-18T05:17:59.709Z,17.60
2022-08-18T05:22:02.936Z,17.70
2022-08-18T05:26:05.680Z,17.90
2022-08-18T05:30:08.203Z,17.90
2022-08-18T05:34:09.936Z,18.00
2022-08-18T05:38:37.864Z,18.00
2022-08-18T05:42:40.280Z,18.00
2022-08-18T05:47:04.910Z,18.10
2022-08-18T05:51:15.605Z,18.20
2022-08-18T05:56:00.295Z,18.30
2022-08-18T06:00:05.486Z,18.40
2022-08-18T06:04:22.496Z,18.50
2022-08-18T06:08:40.561Z,18.50
2022-08-18T06:12:47.082Z,18.50
2022-08-18T06:16:55.752Z,18.70
2022-08-18T06:21:10.266Z,18.60
2022-08-18T06:25:40.939Z,18.60
2022-08-18T06:30:07.515Z,18.60
2022-08-18T06:34:25.728Z,18.70
2022-08-18T06:38:38.489Z,18.70
2022-08-18T06:42:41.006Z,18.70
2022-08-18T06:47:08.752Z,18.70
2022-08-18T06:51:14.581Z,18.80
2022-08-18T06:55:18.805Z,18.80
2022-08-18T06:59:31.009Z,18.80
2022-08-18T07:03:39.300Z,18.80
2022-08-18T07:07:42.396Z,18.80
2022-08-18T07:12:04.594Z,18.90
2022-08-18T07:16:56.730Z,18.80
2022-08-18T07:20:55.093Z,18.80
2022-08-18T07:25:04.628Z,18.90
2022-08-18T07:29:15.877Z,18.90
2022-08-18T07:33:23.882Z,18.90
2022-08-18T07:37:30.133Z,18.90
2022-08-18T07:41:42.789Z,19.00
2022-08-18T07:45:46.634Z,19.00
2022-08-18T07:50:16.508Z,19.10
2022-08-18T07:54:48.893Z,19.20
2022-08-18T07:59:06.050Z,19.40
2022-08-18T08:04:05.205Z,19.40
2022-08-18T08:08:33.708Z,19.50
2022-08-18T08:13:12.392Z,19.60
2022-08-18T08:17:32.529Z,19.40
2022-08-18T08:21:40.250Z,19.60
2022-08-18T08:25:47.422Z,19.70
2022-08-18T08:30:06.639Z,19.80
2022-08-18T08:34:27.524Z,20.00
2022-08-18T08:38:49.451Z,20.30
2022-08-18T08:43:02.311Z,20.60
2022-08-18T08:47:23.102Z,20.80
2022-08-18T08:51:48.981Z,21.00
2022-08-18T08:56:00.104Z,21.10
2022-08-18T09:00:08.148Z,21.20
2022-08-18T09:04:29.326Z,21.30
2022-08-18T09:08:56.101Z,21.40
2022-08-18T09:13:29.411Z,21.30
2022-08-18T09:17:56.584Z,21.70
2022-08-18T09:22:00.686Z,21.80
2022-08-18T09:26:41.548Z,21.70
2022-08-18T09:30:51.700Z,21.60
2022-08-18T09:35:41.545Z,21.70
2022-08-18T09:40:13.439Z,22.00
2022-08-18T09:44:41.069Z,22.50
2022-08-18T09:48:44.760Z,23.00
2022-08-18T09:52:49.098Z,23.00
2022-08-18T09:56:54.179Z,23.10
2022-08-18T10:01:18.817Z,22.80
2022-08-18T10:05:22.382Z,22.60
2022-08-18T10:09:49.424Z,22.50
2022-08-18T10:14:02.972Z,22.70
2022-08-18T10:18:21.027Z,22.70
2022-08-18T10:22:47.804Z,22.70
2022-08-18T10:26:54.664Z,22.70
2022-08-18T10:35:37.667Z,22.80
2022-08-18T10:39:39.732Z,22.90
2022-08-18T10:43:55.544Z,23.10
2022-08-18T10:48:24.353Z,22.70
2022-08-18T10:52:58.940Z,22.70
2022-08-18T10:57:17.384Z,22.80
2022-08-18T11:06:06.526Z,22.80
2022-08-18T11:10:31.907Z,22.70
2022-08-18T11:14:34.265Z,22.60
2022-08-18T11:18:49.102Z,22.80
2022-08-18T11:22:57.028Z,23.20
2022-08-18T11:27:17.923Z,23.60
2022-08-18T11:31:19.735Z,23.80
2022-08-18T11:35:32.719Z,23.70
2022-08-18T11:39:48.030Z,23.80
2022-08-18T11:43:56.753Z,23.70
2022-08-18T11:48:02.369Z,23.50
2022-08-18T11:52:29.039Z,23.70
2022-08-18T11:56:41.791Z,23.90
2022-08-18T12:00:48.776Z,24.10
2022-08-18T12:05:08.730Z,24.30
2022-08-18T12:13:56.538Z,24.20
2022-08-18T12:17:58.752Z,24.10
2022-08-18T12:22:13.663Z,23.90
2022-08-18T12:26:27.298Z,23.70
2022-08-18T12:30:37.325Z,23.40
2022-08-18T12:34:43.948Z,23.50
2022-08-18T12:38:52.167Z,23.50
2022-08-18T12:42:57.926Z,23.50
2022-08-18T12:47:02.505Z,23.40
2022-08-18T12:51:06.463Z,23.30
2022-08-18T12:55:21.930Z,23.30
2022-08-18T12:59:24.854Z,23.30
2022-08-18T13:03:27.264Z,23.20
2022-08-18T13:07:29.213Z,23.20
2022-08-18T13:11:32.169Z,23.30
2022-08-18T13:15:36.988Z,23.30
2022-08-18T13:19:39.335Z,23.70
2022-08-18T13:23:42.520Z,23.70
2022-08-18T13:27:45.304Z,23.80
2022-08-18T13:31:55.707Z,24.10
2022-08-18T13:35:59.410Z,24.20
2022-08-18T13:40:01.842Z,24.40
2022-08-18T13:44:04.249Z,24.50
2022-08-18T13:48:06.031Z,24.60
2022-08-18T13:52:33.081Z,25.10
2022-08-18T13:56:34.597Z,25.20
2022-08-18T14:00:37.414Z,25.30
2022-08-18T14:04:40.167Z,25.30
2022-08-18T14:08:46.387Z,25.50
2022-08-18T14:12:48.290Z,25.60
2022-08-18T14:16:51.529Z,25.80
2022-08-18T14:21:12.474Z,25.70
2022-08-18T14:25:33.872Z,25.70
2022-08-18T14:29:45.541Z,25.60
2022-08-18T14:33:53.562Z,25.80
2022-08-18T14:37:57.092Z,26.30
2022-08-18T14:41:59.650Z,26.60
2022-08-18T14:46:05.509Z,26.70
2022-08-18T14:50:12.830Z,26.70
2022-08-18T14:54:18.117Z,26.50
2022-08-18T14:58:28.738Z,26.20
2022-08-18T15:02:30.493Z,25.80
2022-08-18T15:06:32.245Z,26.20
2022-08-18T15:10:34.108Z,26.00
2022-08-18T15:14:36.362Z,26.10
2022-08-18T15:18:38.087Z,26.10
2022-08-18T15:23:02.903Z,25.70
2022-08-18T15:27:10.239Z,25.20
2022-08-18T15:31:49.559Z,25.20
2022-08-18T15:35:40.621Z,25.20
2022-08-18T15:39:45.706Z,25.20
2022-08-18T15:43:48.113Z,25.20
2022-08-18T15:47:49.954Z,25.20
2022-08-18T15:51:53.209Z,25.20
2022-08-18T15:55:54.919Z,25.30
2022-08-18T16:00:00.578Z,25.30
2022-08-18T16:04:04.204Z,25.30
2022-08-18T16:08:07.122Z,25.40
2022-08-18T16:12:11.916Z,25.50
2022-08-18T16:16:35.752Z,25.50
2022-08-18T16:20:38.991Z,25.60
2022-08-18T16:24:41.008Z,25.30
2022-08-18T16:28:45.355Z,25.30
2022-08-18T16:32:48.212Z,25.30
2022-08-18T16:36:49.937Z,25.30
2022-08-18T16:40:51.661Z,25.30
2022-08-18T16:44:53.407Z,25.10
2022-08-18T16:48:56.995Z,25.20
2022-08-18T16:57:53.120Z,24.90
2022-08-18T17:02:34.721Z,24.80
2022-08-18T17:06:36.603Z,24.80
2022-08-18T17:10:50.080Z,24.80
2022-08-18T17:14:52.291Z,24.60
2022-08-18T17:18:55.444Z,24.50
2022-08-18T17:22:58.619Z,24.40
2022-08-18T17:27:26.387Z,24.50
2022-08-18T17:31:29.710Z,24.40
2022-08-18T17:35:44.447Z,24.30
2022-08-18T17:39:55.462Z,24.30
2022-08-18T17:44:00.776Z,24.20
2022-08-18T17:48:14.184Z,24.30
2022-08-18T17:52:19.161Z,24.20
2022-08-18T17:56:35.457Z,24.20
2022-08-18T18:00:37.502Z,24.10
2022-08-18T18:04:43.411Z,24.00
2022-08-18T18:08:58.190Z,23.90
2022-08-18T18:13:24.587Z,23.90
2022-08-18T18:17:33.378Z,23.90
2022-08-18T18:22:00.338Z,23.80
2022-08-18T18:25:58.193Z,23.70
2022-08-18T18:30:07.808Z,23.50
2022-08-18T18:34:27.611Z,23.50
2022-08-18T18:38:40.199Z,23.40
2022-08-18T18:42:42.367Z,23.30
2022-08-18T18:46:53.005Z,23.20
2022-08-18T18:51:10.933Z,23.10
2022-08-18T18:55:22.882Z,22.90
2022-08-18T19:04:12.529Z,22.80
2022-08-18T19:08:40.213Z,22.60
2022-08-18T19:12:57.289Z,22.60
2022-08-18T19:17:28.077Z,22.40
2022-08-18T19:22:02.097Z,22.20
2022-08-18T19:25:55.144Z,22.00
2022-08-18T19:30:01.462Z,21.80
2022-08-18T19:34:08.498Z,21.70
2022-08-18T19:38:21.581Z,21.60
2022-08-18T19:42:37.356Z,21.30
2022-08-18T19:46:53.292Z,21.10
2022-08-18T19:51:14.900Z,20.90
2022-08-18T19:56:02.561Z,20.70
2022-08-18T20:05:11.174Z,20.40
2022-08-18T20:09:31.202Z,20.20
2022-08-18T20:13:40.196Z,20.00
2022-08-18T20:17:53.438Z,19.90
2022-08-18T20:22:04.760Z,19.80
2022-08-18T20:26:39.820Z,19.70
2022-08-18T20:30:53.164Z,19.50
2022-08-18T20:35:19.614Z,19.40
2022-08-18T20:39:47.272Z,19.30
2022-08-18T20:43:53.336Z,19.10
2022-08-18T20:48:14.077Z,19.00
2022-08-18T20:52:50.194Z,18.90
2022-08-18T20:56:58.954Z,18.80
2022-08-18T21:01:01.784Z,18.70
2022-08-18T21:05:16.822Z,18.60
2022-08-18T21:09:30.713Z,18.60
2022-08-18T21:13:39.835Z,18.50
2022-08-18T21:17:43.484Z,18.40
2022-08-18T21:21:58.196Z,18.30
2022-08-18T21:26:09.176Z,18.20
2022-08-18T21:30:21.943Z,18.10
2022-08-18T21:34:33.185Z,18.00
2022-08-18T21:38:37.450Z,17.90
2022-08-18T21:42:40.417Z,17.80
2022-08-18T21:46:43.647Z,17.70
2022-08-18T21:50:51.690Z,17.70
2022-08-18T21:55:00.476Z,17.60
2022-08-18T21:59:14.101Z,17.50
2022-08-18T22:03:25.256Z,17.40
2022-08-18T22:07:35.280Z,17.40
2022-08-18T22:12:01.380Z,17.30
2022-08-18T22:16:26.967Z,17.20
2022-08-18T22:20:36.415Z,17.20
2022-08-18T22:24:46.345Z,17.10
2022-08-18T22:29:05.802Z,17.00
2022-08-18T22:33:07.524Z,16.90
2022-08-18T22:37:21.546Z,16.90
2022-08-18T22:41:23.755Z,16.90
2022-08-18T22:45:25.522Z,16.80
2022-08-18T22:49:27.368Z,16.70
2022-08-18T22:53:29.499Z,16.60
2022-08-18T22:57:34.384Z,16.60
2022-08-18T23:01:39.108Z,16.60
2022-08-18T23:05:40.824Z,16.50
2022-08-18T23:09:42.620Z,16.50
2022-08-18T23:13:44.412Z,16.50
2022-08-18T23:17:46.381Z,16.40
2022-08-18T23:21:48.645Z,16.40
2022-08-18T23:25:50.814Z,16.40
2022-08-18T23:29:52.576Z,16.30
2022-08-18T23:33:54.330Z,16.30
2022-08-18T23:37:56.525Z,16.20
2022-08-18T23:41:59.275Z,16.20
2022-08-18T23:46:02.354Z,16.10
2022-08-18T23:50:05.350Z,16.10
2022-08-18T23:54:09.942Z,16.10
2022-08-18T23:58:11.754Z,16.00
